createdAt,value
2023-04-15T05:36:52.549Z,2.75
2023-04-15T05:39:54.292Z,2.00
2023-04-15T05:42:56.166Z,3.70
2023-04-15T05:45:57.847Z,2.63
2023-04-15T05:48:59.766Z,3.00
2023-04-15T05:52:01.572Z,2.67
2023-04-15T05:55:03.257Z,1.88
2023-04-15T05:58:06.316Z,2.42
2023-04-15T06:01:07.960Z,1.38
2023-04-15T06:04:09.806Z,2.90
2023-04-15T06:07:11.559Z,2.28
2023-04-15T06:10:13.209Z,2.55
2023-04-15T06:13:14.877Z,2.67
2023-04-15T06:16:16.597Z,3.17
2023-04-15T06:19:18.481Z,2.63
2023-04-15T06:22:20.118Z,4.32
2023-04-15T06:25:22.098Z,2.75
2023-04-15T06:28:23.738Z,3.35
2023-04-15T06:31:25.543Z,4.22
2023-04-15T06:34:27.412Z,4.63
2023-04-15T06:37:29.149Z,3.88
2023-04-15T06:40:31.219Z,5.20
2023-04-15T06:43:32.837Z,3.72
2023-04-15T06:46:34.966Z,4.68
2023-04-15T06:49:36.634Z,3.35
2023-04-15T06:52:38.408Z,4.40
2023-04-15T06:55:40.501Z,5.70
2023-04-15T06:58:42.321Z,4.57
2023-04-15T07:01:44.096Z,3.60
2023-04-15T07:04:45.766Z,4.15
2023-04-15T07:07:47.659Z,3.55
2023-04-15T07:10:49.299Z,3.83
2023-04-15T07:13:50.941Z,4.53
2023-04-15T07:16:52.997Z,4.20
2023-04-15T07:19:54.896Z,3.90
2023-04-15T07:22:56.664Z,3.33
2023-04-15T07:25:58.507Z,4.35
2023-04-15T07:29:00.366Z,4.18
2023-04-15T07:32:02.822Z,3.78
2023-04-15T07:35:04.953Z,2.63
2023-04-15T07:38:06.864Z,3.53
2023-04-15T07:41:08.511Z,4.00
2023-04-15T07:44:10.419Z,2.95
2023-04-15T07:47:12.268Z,3.08
2023-04-15T07:50:14.432Z,3.35
2023-04-15T07:53:16.089Z,3.00
2023-04-15T07:56:18.044Z,3.30
2023-04-15T07:59:19.910Z,3.55
2023-04-15T08:02:22.350Z,3.55
2023-04-15T08:05:24.213Z,2.45
2023-04-15T08:08:26.438Z,1.40
2023-04-15T08:11:28.183Z,2.33
2023-04-15T08:14:29.876Z,1.85
2023-04-15T08:17:31.765Z,2.17
2023-04-15T08:20:33.920Z,2.85
2023-04-15T08:23:35.650Z,2.30
2023-04-15T08:26:37.720Z,2.95
2023-04-15T08:29:39.347Z,2.35
2023-04-15T08:32:42.587Z,2.08
2023-04-15T08:35:44.254Z,2.05
2023-04-15T08:38:46.168Z,2.58
2023-04-15T08:41:51.852Z,2.38
2023-04-15T08:44:53.504Z,3.22
2023-04-15T08:47:56.349Z,2.72
2023-04-15T08:50:58.133Z,2.08
2023-04-15T08:54:00.466Z,2.50
2023-04-15T08:57:02.574Z,2.83
2023-04-15T09:00:05.711Z,3.15
2023-04-15T09:03:08.134Z,4.28
2023-04-15T09:06:10.808Z,2.10
2023-04-15T09:09:14.262Z,2.42
2023-04-15T09:15:18.941Z,3.00
2023-04-15T09:18:34.207Z,2.40
2023-04-15T09:21:35.832Z,2.80
2023-04-15T09:24:39.070Z,3.15
2023-04-15T09:27:50.916Z,3.63
2023-04-15T09:30:57.664Z,3.55
2023-04-15T09:33:59.428Z,2.10
2023-04-15T09:37:01.536Z,4.32
2023-04-15T09:40:03.935Z,2.92
2023-04-15T09:43:06.279Z,2.90
2023-04-15T09:46:08.308Z,3.55
2023-04-15T09:49:13.435Z,3.50
2023-04-15T09:52:15.411Z,2.53
2023-04-15T09:55:18.269Z,2.65
2023-04-15T09:58:24.574Z,2.83
2023-04-15T10:01:26.272Z,3.30
2023-04-15T10:04:28.699Z,3.35
2023-04-15T10:07:30.894Z,3.10
2023-04-15T10:10:33.281Z,2.55
2023-04-15T10:13:37.368Z,3.50
2023-04-15T10:16:39.626Z,4.03
2023-04-15T10:19:41.334Z,3.17
2023-04-15T10:22:43.444Z,3.30
2023-04-15T10:25:46.441Z,2.55
2023-04-15T10:28:48.857Z,3.05
2023-04-15T10:31:51.142Z,2.80
2023-04-15T10:34:54.417Z,3.38
2023-04-15T10:37:56.476Z,2.42
2023-04-15T10:41:19.484Z,1.98
2023-04-15T10:44:22.093Z,3.22
2023-04-15T10:47:23.982Z,2.50
2023-04-15T10:50:29.874Z,2.35
2023-04-15T10:53:31.886Z,3.33
2023-04-15T10:56:33.747Z,3.08
2023-04-15T10:59:39.620Z,2.92
2023-04-15T11:03:07.826Z,2.92
2023-04-15T11:06:09.854Z,2.92
2023-04-15T11:09:30.648Z,3.30
2023-04-15T11:12:38.564Z,2.83
2023-04-15T11:15:45.024Z,3.17
2023-04-15T11:18:55.953Z,4.07
2023-04-15T11:21:57.607Z,3.10
2023-04-15T11:24:59.314Z,2.70
2023-04-15T11:28:01.962Z,1.85
2023-04-15T11:31:17.625Z,2.08
2023-04-15T11:34:25.665Z,2.45
2023-04-15T11:37:30.649Z,2.30
2023-04-15T11:40:36.378Z,3.55
2023-04-15T11:43:38.010Z,3.50
2023-04-15T11:46:39.716Z,2.83
2023-04-15T11:49:41.565Z,2.42
2023-04-15T11:53:03.100Z,2.80
2023-04-15T11:59:07.822Z,2.97
2023-04-15T12:02:13.585Z,3.35
2023-04-15T12:05:16.066Z,2.28
2023-04-15T12:08:17.963Z,2.38
2023-04-15T12:11:51.687Z,2.95
2023-04-15T12:14:53.733Z,2.95
2023-04-15T12:17:55.913Z,2.13
2023-04-15T12:20:58.295Z,2.10
2023-04-15T12:24:02.142Z,1.77
2023-04-15T12:27:08.496Z,1.98
2023-04-15T12:30:11.598Z,2.03
2023-04-15T12:33:13.366Z,1.95
2023-04-15T12:36:15.581Z,2.60
2023-04-15T12:39:17.536Z,2.50
2023-04-15T12:42:19.422Z,2.58
2023-04-15T12:45:21.420Z,1.23
2023-04-15T12:48:23.403Z,2.50
2023-04-15T12:51:26.374Z,2.63
2023-04-15T12:54:28.762Z,2.80
2023-04-15T12:57:30.499Z,3.15
2023-04-15T13:00:34.552Z,2.35
2023-04-15T13:03:36.337Z,1.77
2023-04-15T13:06:38.517Z,1.67
2023-04-15T13:09:40.158Z,1.92
2023-04-15T13:12:41.812Z,2.38
2023-04-15T13:15:45.889Z,2.35
2023-04-15T13:18:48.936Z,3.22
2023-04-15T13:21:50.604Z,2.28
2023-04-15T13:24:52.233Z,2.15
2023-04-15T13:27:54.064Z,2.75
2023-04-15T13:30:55.741Z,3.65
2023-04-15T13:33:57.595Z,2.92
2023-04-15T13:36:59.334Z,1.60
2023-04-15T13:40:01.088Z,1.60
2023-04-15T13:43:03.331Z,2.08
2023-04-15T13:46:05.576Z,2.22
2023-04-15T13:49:07.445Z,2.10
2023-04-15T13:52:12.388Z,2.03
2023-04-15T13:55:19.083Z,1.90
2023-04-15T13:58:22.556Z,2.30
2023-04-15T14:01:24.699Z,2.72
2023-04-15T14:04:26.444Z,1.70
2023-04-15T14:07:29.782Z,1.98
2023-04-15T14:10:31.429Z,2.13
2023-04-15T14:13:33.109Z,2.88
2023-04-15T14:16:35.146Z,1.85
2023-04-15T14:19:36.793Z,1.63
2023-04-15T14:22:38.444Z,1.95
2023-04-15T14:25:40.185Z,2.45
2023-04-15T14:28:44.757Z,2.17
2023-04-15T14:32:08.776Z,1.70
2023-04-15T14:35:08.424Z,2.05
2023-04-15T14:38:11.261Z,2.63
2023-04-15T14:41:13.330Z,2.10
2023-04-15T14:44:15.212Z,3.20
2023-04-15T14:47:17.034Z,1.77
2023-04-15T14:50:18.832Z,2.55
2023-04-15T14:53:20.490Z,1.80
2023-04-15T14:56:22.240Z,3.28
2023-04-15T14:59:23.928Z,2.45
2023-04-15T15:02:37.226Z,2.33
2023-04-15T15:05:41.135Z,2.75
2023-04-15T15:11:44.545Z,2.45
2023-04-15T15:14:46.242Z,2.58
2023-04-15T15:17:48.215Z,2.42
2023-04-15T15:20:49.942Z,1.83
2023-04-15T15:23:51.755Z,1.85
2023-04-15T15:26:53.499Z,2.00
2023-04-15T15:29:56.586Z,2.38
2023-04-15T15:32:58.431Z,1.48
2023-04-15T15:36:00.154Z,1.77
2023-04-15T15:39:05.287Z,1.77
2023-04-15T15:42:07.566Z,2.25
2023-04-15T15:45:09.928Z,1.92
2023-04-15T15:48:11.631Z,1.77
2023-04-15T15:51:13.330Z,1.98
2023-04-15T15:54:14.969Z,2.15
2023-04-15T15:57:17.662Z,2.10
2023-04-15T16:00:19.351Z,2.00
2023-04-15T16:03:21.403Z,2.40
2023-04-15T16:06:23.150Z,2.72
2023-04-15T16:09:24.876Z,2.55
2023-04-15T16:12:26.648Z,2.58
2023-04-15T16:15:28.393Z,2.40
2023-04-15T16:18:30.134Z,2.63
2023-04-15T16:21:32.348Z,2.15
2023-04-15T16:24:34.945Z,2.42
2023-04-15T16:27:53.790Z,2.78
2023-04-15T16:30:59.885Z,2.08
2023-04-15T16:34:02.225Z,1.10
2023-04-15T16:37:03.905Z,1.02
2023-04-15T16:40:06.227Z,1.15
2023-04-15T16:43:08.198Z,1.50
2023-04-15T16:46:11.090Z,1.30
2023-04-15T16:49:12.792Z,2.53
2023-04-15T16:52:14.490Z,1.85
2023-04-15T16:55:16.316Z,0.80
2023-04-15T16:58:17.969Z,0.73
2023-04-15T17:01:21.357Z,0.85
2023-04-15T17:04:23.302Z,1.42
2023-04-15T17:07:25.060Z,1.50
2023-04-15T17:10:26.822Z,1.85
2023-04-15T17:13:28.461Z,1.45
2023-04-15T17:16:30.090Z,1.13
2023-04-15T17:19:31.952Z,1.83
2023-04-15T17:22:33.650Z,3.15
2023-04-15T17:25:35.307Z,1.65
2023-04-15T17:28:37.111Z,1.52
2023-04-15T17:31:38.869Z,2.80
2023-04-15T17:34:50.118Z,2.60
2023-04-15T17:37:52.815Z,3.33
2023-04-15T17:40:55.123Z,2.65
2023-04-15T17:43:56.753Z,2.67
2023-04-15T17:46:58.517Z,3.10
2023-04-15T17:50:00.318Z,3.20
2023-04-15T17:53:01.976Z,2.80
2023-04-15T17:56:03.747Z,3.38
2023-04-15T17:59:06.331Z,3.10
2023-04-15T18:02:08.100Z,2.92
2023-04-15T18:05:10.416Z,2.92
2023-04-15T18:08:12.106Z,3.78
2023-04-15T18:11:13.783Z,3.53
2023-04-15T18:14:23.508Z,3.63
2023-04-15T18:17:32.890Z,2.97
2023-04-15T18:20:34.671Z,3.45
2023-04-15T18:23:37.394Z,3.20
2023-04-15T18:26:39.099Z,2.55
2023-04-15T18:29:40.751Z,2.50
2023-04-15T18:32:42.451Z,3.35
2023-04-15T18:35:44.183Z,3.25
2023-04-15T18:38:46.203Z,3.67
2023-04-15T18:41:47.940Z,3.22
2023-04-15T18:44:50.227Z,3.45
2023-04-15T18:47:52.279Z,2.42
2023-04-15T18:50:54.149Z,2.47
2023-04-15T18:53:55.990Z,2.75
2023-04-15T18:56:57.801Z,4.13
2023-04-15T18:59:59.580Z,3.42
2023-04-15T19:03:01.497Z,4.10
2023-04-15T19:06:03.298Z,2.55
2023-04-15T19:09:05.150Z,2.45
2023-04-15T19:12:06.993Z,3.95
2023-04-15T19:15:08.945Z,3.72
2023-04-15T19:18:11.731Z,3.28
2023-04-15T19:21:13.406Z,2.78
2023-04-15T19:24:15.578Z,3.85
2023-04-15T19:27:17.336Z,3.28
2023-04-15T19:30:19.056Z,3.95
2023-04-15T19:33:20.787Z,2.55
2023-04-15T19:36:22.596Z,3.55
2023-04-15T19:39:24.309Z,3.33
2023-04-15T19:42:26.031Z,4.10
2023-04-15T19:45:27.722Z,3.65
2023-04-15T19:48:29.455Z,2.67
2023-04-15T19:51:31.788Z,3.80
2023-04-15T19:54:33.538Z,3.53
2023-04-15T19:57:35.524Z,3.47
2023-04-15T20:00:37.864Z,4.05
2023-04-15T20:03:39.704Z,2.80
2023-04-15T20:06:41.679Z,3.88
2023-04-15T20:09:44.065Z,2.90
2023-04-15T20:12:50.271Z,3.92
2023-04-15T20:15:54.618Z,3.33
2023-04-15T20:18:56.359Z,4.03
2023-04-15T20:21:58.005Z,3.03
2023-04-15T20:25:04.266Z,4.82
2023-04-15T20:28:06.216Z,3.40
2023-04-15T20:31:07.932Z,3.63
2023-04-15T20:34:11.430Z,4.38
2023-04-15T20:37:13.821Z,4.10
2023-04-15T20:40:15.551Z,3.70
2023-04-15T20:43:17.277Z,3.85
2023-04-15T20:46:21.383Z,5.75
2023-04-15T20:49:23.438Z,3.63
2023-04-15T20:52:25.066Z,4.57
2023-04-15T20:55:27.941Z,3.90
2023-04-15T20:58:30.709Z,5.25
2023-04-15T21:01:32.628Z,4.68
2023-04-15T21:04:34.370Z,3.90
2023-04-15T21:07:36.400Z,3.95
2023-04-15T21:10:57.213Z,5.38
2023-04-15T21:13:58.980Z,4.70
2023-04-15T21:17:07.310Z,3.70
2023-04-15T21:20:11.533Z,4.03
2023-04-15T21:23:13.238Z,4.20
2023-04-15T21:26:15.362Z,4.70
2023-04-15T21:29:17.081Z,3.95
2023-04-15T21:32:19.001Z,4.85
2023-04-15T21:35:21.022Z,3.08
2023-04-15T21:38:23.470Z,3.35
2023-04-15T21:41:25.675Z,4.45
2023-04-15T21:44:27.379Z,3.38
2023-04-15T21:47:29.165Z,3.65
2023-04-15T21:50:30.926Z,3.15
2023-04-15T21:53:32.894Z,4.13
2023-04-15T21:56:34.735Z,5.13
2023-04-15T21:59:36.366Z,3.08
2023-04-15T22:02:38.339Z,4.72
2023-04-15T22:05:40.380Z,4.30
2023-04-15T22:08:55.399Z,3.97
2023-04-15T22:11:59.719Z,3.78
2023-04-15T22:15:01.812Z,3.50
2023-04-15T22:18:04.025Z,3.63
2023-04-15T22:21:06.215Z,3.63
2023-04-15T22:24:38.044Z,3.50
2023-04-15T22:27:29.694Z,3.33
2023-04-15T22:30:31.330Z,3.75
2023-04-15T22:33:32.976Z,4.00
2023-04-15T22:36:34.675Z,4.05
2023-04-15T22:39:36.421Z,3.90
2023-04-15T22:42:38.068Z,4.78
2023-04-15T22:45:39.867Z,4.72
2023-04-15T22:48:42.899Z,4.03
2023-04-15T22:51:44.538Z,3.40
2023-04-15T22:54:46.164Z,3.95
2023-04-15T22:57:48.035Z,4.07
2023-04-15T23:00:50.220Z,4.88
2023-04-15T23:03:57.146Z,4.80
2023-04-15T23:07:06.915Z,4.53
2023-04-15T23:10:09.168Z,4.07
2023-04-15T23:13:11.125Z,4.78
2023-04-15T23:16:13.119Z,3.83
2023-04-15T23:19:14.802Z,4.13
2023-04-15T23:22:16.476Z,3.70
2023-04-15T23:25:20.408Z,3.03
2023-04-15T23:28:22.357Z,3.35
2023-04-15T23:31:24.026Z,4.28
2023-04-15T23:34:26.221Z,4.85
2023-04-15T23:37:29.577Z,3.90
2023-04-15T23:40:31.249Z,3.38
2023-04-15T23:43:32.919Z,5.47
2023-04-15T23:46:34.856Z,4.82
2023-04-15T23:49:36.996Z,4.35
2023-04-15T23:52:38.668Z,3.70
2023-04-15T23:55:40.312Z,3.65
2023-04-15T23:58:42.204Z,4.05
